createdAt,value
2018-06-30T00:02:25.363Z,18.40
2018-06-30T00:04:54.217Z,18.40
2018-06-30T00:07:23.754Z,18.40
2018-06-30T00:09:52.414Z,18.50
2018-06-30T00:12:21.069Z,18.40
2018-06-30T00:14:49.727Z,18.40
2018-06-30T00:17:18.407Z,18.40
2018-06-30T00:19:46.999Z,18.30
2018-06-30T00:22:15.620Z,18.30
2018-06-30T00:24:44.207Z,18.20
2018-06-30T00:27:18.190Z,18.20
2018-06-30T00:29:46.802Z,18.10
2018-06-30T00:32:15.429Z,18.10
2018-06-30T00:34:44.065Z,18.00
2018-06-30T00:37:12.646Z,18.00
2018-06-30T00:39:41.275Z,17.90
2018-06-30T00:42:09.922Z,17.90
2018-06-30T00:44:38.526Z,17.90
2018-06-30T00:47:07.165Z,17.70
2018-06-30T00:49:35.842Z,17.80
2018-06-30T00:52:04.488Z,17.70
2018-06-30T00:54:33.120Z,17.70
2018-06-30T00:57:01.896Z,17.70
2018-06-30T00:59:30.494Z,17.70
2018-06-30T01:01:59.130Z,17.60
2018-06-30T01:04:28.135Z,17.70
2018-06-30T01:06:56.766Z,17.70
2018-06-30T01:09:25.398Z,17.70
2018-06-30T01:11:54.059Z,17.80
2018-06-30T01:14:22.652Z,17.80
2018-06-30T01:16:51.287Z,17.80
2018-06-30T01:19:19.930Z,17.80
2018-06-30T01:21:48.545Z,17.80
2018-06-30T01:24:17.142Z,17.90
2018-06-30T01:26:45.742Z,17.90
2018-06-30T01:29:14.346Z,17.80
2018-06-30T01:31:42.957Z,17.80
2018-06-30T01:34:11.569Z,17.80
2018-06-30T01:36:40.184Z,17.70
2018-06-30T01:39:10.410Z,17.80
2018-06-30T01:41:39.050Z,17.60
2018-06-30T01:44:07.747Z,17.60
2018-06-30T01:46:36.363Z,17.60
2018-06-30T01:49:04.998Z,17.50
2018-06-30T01:51:33.637Z,17.50
2018-06-30T01:54:02.287Z,17.50
2018-06-30T01:56:30.886Z,17.50
2018-06-30T01:58:59.491Z,17.50
2018-06-30T02:01:28.111Z,17.50
2018-06-30T02:03:56.950Z,17.50
2018-06-30T02:06:25.549Z,17.40
2018-06-30T02:08:54.176Z,17.30
2018-06-30T02:11:22.804Z,17.20
2018-06-30T02:13:51.450Z,17.20
2018-06-30T02:16:20.121Z,17.10
2018-06-30T02:18:48.759Z,17.10
2018-06-30T02:21:17.373Z,17.10
2018-06-30T02:23:45.971Z,17.10
2018-06-30T02:26:14.651Z,17.10
2018-06-30T02:28:43.247Z,17.00
2018-06-30T02:31:11.925Z,16.90
2018-06-30T02:33:40.584Z,16.80
2018-06-30T02:36:09.196Z,16.70
2018-06-30T02:38:37.831Z,16.60
2018-06-30T02:41:06.448Z,16.60
2018-06-30T02:43:35.131Z,16.50
2018-06-30T02:46:03.842Z,16.50
2018-06-30T02:48:32.468Z,16.40
2018-06-30T02:51:01.075Z,16.40
2018-06-30T02:53:29.716Z,16.40
2018-06-30T02:55:58.346Z,16.30
2018-06-30T02:58:26.967Z,16.30
2018-06-30T03:00:55.636Z,16.30
2018-06-30T03:03:24.290Z,16.20
2018-06-30T03:05:52.894Z,16.10
2018-06-30T03:08:21.605Z,16.00
2018-06-30T03:10:50.267Z,15.90
2018-06-30T03:13:18.892Z,15.90
2018-06-30T03:15:47.530Z,15.90
2018-06-30T03:18:16.236Z,15.80
2018-06-30T03:20:44.854Z,15.70
2018-06-30T03:23:13.470Z,15.70
2018-06-30T03:25:42.111Z,15.70
2018-06-30T03:28:10.758Z,15.60
2018-06-30T03:30:39.398Z,15.50
2018-06-30T03:33:08.099Z,15.30
2018-06-30T03:35:36.715Z,15.30
2018-06-30T03:38:05.380Z,15.30
2018-06-30T03:40:34.040Z,15.20
2018-06-30T03:43:02.656Z,15.30
2018-06-30T03:45:31.277Z,15.20
2018-06-30T03:47:59.931Z,15.10
2018-06-30T03:52:56.845Z,15.00
2018-06-30T03:55:25.495Z,15.10
2018-06-30T03:57:54.124Z,15.10
2018-06-30T04:00:22.754Z,15.00
2018-06-30T04:02:51.459Z,15.00
2018-06-30T04:05:20.210Z,14.90
2018-06-30T04:07:48.891Z,14.90
2018-06-30T04:10:17.527Z,14.80
2018-06-30T04:12:46.127Z,14.90
2018-06-30T04:15:14.798Z,14.90
2018-06-30T04:17:43.457Z,14.90
2018-06-30T04:20:12.075Z,14.90
2018-06-30T04:22:40.715Z,15.00
2018-06-30T04:25:09.395Z,15.00
2018-06-30T04:27:38.029Z,15.20
2018-06-30T04:30:06.745Z,15.20
2018-06-30T04:32:35.438Z,15.20
2018-06-30T04:35:04.250Z,15.20
2018-06-30T04:37:32.866Z,15.30
2018-06-30T04:40:01.524Z,15.30
2018-06-30T04:42:30.264Z,15.30
2018-06-30T04:44:58.931Z,15.40
2018-06-30T04:47:27.637Z,15.40
2018-06-30T04:49:56.297Z,15.50
2018-06-30T04:52:24.889Z,15.60
2018-06-30T04:54:53.527Z,15.60
2018-06-30T04:57:22.180Z,15.80
2018-06-30T04:59:50.794Z,16.00
2018-06-30T05:02:19.452Z,16.10
2018-06-30T05:04:48.074Z,15.80
2018-06-30T05:07:16.659Z,15.80
2018-06-30T05:09:45.312Z,15.70
2018-06-30T05:12:14.498Z,15.80
2018-06-30T05:14:43.294Z,15.90
2018-06-30T05:17:12.028Z,16.10
2018-06-30T05:19:40.724Z,16.00
2018-06-30T05:22:09.377Z,16.00
2018-06-30T05:24:39.790Z,16.20
2018-06-30T05:27:08.779Z,16.40
2018-06-30T05:29:37.364Z,16.60
2018-06-30T05:32:06.001Z,16.80
2018-06-30T05:34:34.675Z,16.70
2018-06-30T05:37:03.370Z,16.60
2018-06-30T05:39:32.507Z,16.70
2018-06-30T05:42:01.475Z,16.90
2018-06-30T05:44:30.135Z,17.00
2018-06-30T05:46:58.932Z,17.20
2018-06-30T05:49:27.661Z,17.40
2018-06-30T05:51:56.226Z,17.40
2018-06-30T05:54:24.873Z,17.50
2018-06-30T05:56:53.561Z,17.50
2018-06-30T05:59:22.400Z,17.50
2018-06-30T06:01:51.026Z,17.50
2018-06-30T06:04:19.668Z,17.90
2018-06-30T06:06:48.331Z,17.80
2018-06-30T06:09:16.938Z,17.80
2018-06-30T06:11:45.558Z,18.00
2018-06-30T06:14:14.210Z,18.30
2018-06-30T06:16:42.852Z,18.50
2018-06-30T06:19:11.451Z,18.60
2018-06-30T06:21:40.441Z,18.90
2018-06-30T06:24:09.075Z,19.40
2018-06-30T06:26:37.732Z,20.00
2018-06-30T06:29:06.763Z,20.40
2018-06-30T06:31:35.392Z,20.70
2018-06-30T06:34:04.029Z,20.90
2018-06-30T06:36:32.639Z,21.30
2018-06-30T06:39:01.249Z,21.40
2018-06-30T06:41:29.832Z,21.40
2018-06-30T06:43:58.418Z,21.80
2018-06-30T06:46:27.026Z,22.30
2018-06-30T06:51:23.862Z,23.60
2018-06-30T06:53:52.487Z,23.80
2018-06-30T06:56:21.096Z,23.10
2018-06-30T06:58:49.732Z,23.70
2018-06-30T07:01:18.401Z,23.40
2018-06-30T07:03:46.966Z,24.30
2018-06-30T07:06:15.567Z,24.10
2018-06-30T07:08:44.174Z,24.20
2018-06-30T07:11:12.861Z,24.70
2018-06-30T07:13:41.414Z,25.50
2018-06-30T07:16:10.539Z,25.40
2018-06-30T07:18:39.234Z,25.00
2018-06-30T07:21:07.874Z,25.00
2018-06-30T07:23:36.578Z,25.20
2018-06-30T07:26:06.318Z,25.60
2018-06-30T07:28:35.032Z,25.90
2018-06-30T07:31:03.637Z,25.60
2018-06-30T07:33:32.202Z,24.70
2018-06-30T07:38:29.095Z,24.40
2018-06-30T07:40:58.124Z,24.40
2018-06-30T07:43:27.015Z,24.50
2018-06-30T07:45:55.672Z,25.50
2018-06-30T07:48:24.275Z,26.10
2018-06-30T07:50:52.875Z,25.60
2018-06-30T07:53:21.527Z,25.80
2018-06-30T07:55:50.107Z,24.60
2018-06-30T07:58:18.678Z,24.20
2018-06-30T08:00:47.270Z,25.00
2018-06-30T08:03:15.829Z,25.80
2018-06-30T08:05:44.411Z,26.00
2018-06-30T08:08:13.056Z,26.70
2018-06-30T08:10:41.672Z,27.00
2018-06-30T08:13:10.279Z,27.20
2018-06-30T08:15:38.997Z,26.10
2018-06-30T08:18:07.683Z,26.20
2018-06-30T08:20:36.486Z,26.30
2018-06-30T08:23:05.134Z,26.70
2018-06-30T08:25:34.035Z,26.70
2018-06-30T08:28:02.646Z,26.80
2018-06-30T08:30:31.295Z,25.30
2018-06-30T08:32:59.957Z,25.00
2018-06-30T08:35:28.557Z,24.90
2018-06-30T08:37:58.338Z,25.40
2018-06-30T08:40:26.975Z,26.40
2018-06-30T08:42:55.577Z,27.30
2018-06-30T08:45:24.422Z,27.50
2018-06-30T08:47:53.016Z,27.20
2018-06-30T08:50:21.738Z,27.00
2018-06-30T08:52:50.418Z,27.70
2018-06-30T08:55:19.103Z,27.40
2018-06-30T08:57:47.691Z,26.80
2018-06-30T09:00:16.331Z,27.50
2018-06-30T09:02:45.000Z,28.40
2018-06-30T09:05:13.604Z,28.60
2018-06-30T09:07:42.218Z,27.90
2018-06-30T09:10:10.918Z,28.40
2018-06-30T09:12:39.594Z,27.10
2018-06-30T09:15:08.247Z,25.50
2018-06-30T09:17:37.517Z,25.70
2018-06-30T09:20:06.132Z,26.20
2018-06-30T09:22:34.806Z,25.90
2018-06-30T09:25:03.438Z,25.30
2018-06-30T09:27:32.072Z,26.70
2018-06-30T09:30:00.673Z,26.60
2018-06-30T09:32:29.291Z,27.00
2018-06-30T09:34:57.887Z,26.80
2018-06-30T09:37:26.571Z,25.90
2018-06-30T09:39:55.162Z,24.90
2018-06-30T09:42:23.739Z,24.40
2018-06-30T09:44:52.428Z,24.00
2018-06-30T09:47:21.081Z,24.90
2018-06-30T09:49:49.732Z,25.90
2018-06-30T09:52:18.428Z,27.20
2018-06-30T09:54:47.096Z,27.30
2018-06-30T09:57:15.686Z,27.30
2018-06-30T09:59:44.325Z,27.60
2018-06-30T10:02:12.927Z,26.90
2018-06-30T10:04:41.524Z,26.40
2018-06-30T10:07:10.228Z,26.30
2018-06-30T10:09:38.810Z,25.40
2018-06-30T10:12:07.648Z,24.70
2018-06-30T10:14:36.290Z,25.50
2018-06-30T10:17:04.931Z,25.20
2018-06-30T10:19:33.611Z,25.90
2018-06-30T10:22:02.170Z,25.80
2018-06-30T10:24:30.794Z,25.60
2018-06-30T10:26:59.377Z,26.00
2018-06-30T10:29:28.001Z,26.60
2018-06-30T10:31:56.664Z,26.10
2018-06-30T10:34:25.284Z,26.10
2018-06-30T10:36:54.106Z,26.30
2018-06-30T10:39:22.675Z,27.10
2018-06-30T10:41:51.354Z,27.10
2018-06-30T10:44:19.959Z,26.40
2018-06-30T10:46:48.582Z,26.70
2018-06-30T10:49:17.168Z,27.20
2018-06-30T10:51:45.759Z,26.10
2018-06-30T10:54:14.386Z,25.80
2018-06-30T10:56:43.059Z,26.70
2018-06-30T10:59:11.814Z,26.40
2018-06-30T11:01:40.518Z,26.90
2018-06-30T11:04:09.142Z,27.10
2018-06-30T11:06:37.769Z,27.00
2018-06-30T11:09:10.423Z,26.80
2018-06-30T11:11:39.276Z,26.80
2018-06-30T11:14:07.909Z,26.70
2018-06-30T11:16:36.676Z,27.30
2018-06-30T11:19:05.325Z,26.00
2018-06-30T11:21:33.898Z,26.60
2018-06-30T11:24:02.486Z,27.00
2018-06-30T11:26:31.191Z,27.40
2018-06-30T11:29:00.090Z,27.40
2018-06-30T11:31:28.658Z,26.70
2018-06-30T11:33:57.318Z,26.60
2018-06-30T11:36:26.006Z,25.80
2018-06-30T11:38:54.648Z,25.70
2018-06-30T11:41:23.262Z,25.40
2018-06-30T11:43:52.120Z,24.80
2018-06-30T11:46:20.786Z,25.10
2018-06-30T11:48:49.427Z,25.30
2018-06-30T11:51:18.019Z,25.00
2018-06-30T11:53:46.591Z,24.70
2018-06-30T11:56:15.205Z,24.30
2018-06-30T11:58:44.078Z,23.70
2018-06-30T12:01:13.352Z,23.50
2018-06-30T12:03:41.975Z,23.40
2018-06-30T12:06:10.583Z,23.00
2018-06-30T12:08:39.219Z,22.60
2018-06-30T12:11:07.838Z,22.50
2018-06-30T12:13:36.385Z,22.70
2018-06-30T12:16:05.031Z,23.00
2018-06-30T12:18:33.663Z,23.10
2018-06-30T12:21:02.258Z,22.90
2018-06-30T12:23:30.937Z,23.10
2018-06-30T12:25:59.680Z,22.90
2018-06-30T12:28:28.249Z,23.00
2018-06-30T12:30:56.871Z,22.90
2018-06-30T12:33:25.875Z,22.70
2018-06-30T12:35:54.675Z,22.70
2018-06-30T12:38:23.337Z,22.50
2018-06-30T12:40:51.967Z,22.50
2018-06-30T12:43:20.610Z,22.50
2018-06-30T12:48:17.472Z,22.40
2018-06-30T12:50:46.053Z,22.50
2018-06-30T12:53:14.635Z,22.30
2018-06-30T12:55:43.282Z,22.30
2018-06-30T12:58:11.900Z,22.30
2018-06-30T13:00:40.490Z,22.20
2018-06-30T13:03:09.166Z,22.20
2018-06-30T13:05:37.747Z,21.70
2018-06-30T13:08:06.411Z,21.80
2018-06-30T13:10:35.050Z,21.90
2018-06-30T13:13:03.669Z,22.10
2018-06-30T13:15:32.264Z,22.40
2018-06-30T13:22:57.421Z,22.80
2018-06-30T13:25:26.057Z,23.00
2018-06-30T13:27:54.651Z,22.60
2018-06-30T13:30:23.292Z,22.30
2018-06-30T13:32:51.925Z,21.70
2018-06-30T13:35:20.538Z,21.70
2018-06-30T13:37:49.180Z,21.70
2018-06-30T13:40:17.823Z,21.40
2018-06-30T13:45:21.230Z,21.50
2018-06-30T13:47:49.882Z,21.60
2018-06-30T13:50:18.495Z,21.40
2018-06-30T13:52:47.144Z,21.40
2018-06-30T13:55:15.758Z,21.60
2018-06-30T13:57:44.389Z,21.70
2018-06-30T14:00:13.101Z,21.60
2018-06-30T14:02:41.687Z,21.70
2018-06-30T14:05:10.286Z,21.80
2018-06-30T14:07:38.918Z,21.90
2018-06-30T14:10:08.403Z,22.20
2018-06-30T14:12:37.038Z,22.00
2018-06-30T14:15:08.685Z,21.80
2018-06-30T14:17:37.327Z,21.60
2018-06-30T14:20:07.146Z,21.20
2018-06-30T14:22:35.815Z,21.10
2018-06-30T14:25:04.884Z,21.10
2018-06-30T14:27:33.519Z,21.20
2018-06-30T14:30:02.259Z,21.20
2018-06-30T14:32:30.861Z,21.10
2018-06-30T14:34:59.479Z,21.30
2018-06-30T14:37:29.283Z,21.50
2018-06-30T14:39:57.940Z,21.60
2018-06-30T14:42:26.595Z,21.50
2018-06-30T14:44:55.201Z,21.60
2018-06-30T14:47:23.816Z,21.50
2018-06-30T14:49:52.487Z,21.40
2018-06-30T14:52:21.146Z,21.30
2018-06-30T14:54:49.762Z,21.20
2018-06-30T14:57:19.054Z,21.30
2018-06-30T14:59:47.695Z,21.30
2018-06-30T15:02:16.317Z,21.20
2018-06-30T15:04:44.922Z,21.10
2018-06-30T15:07:13.566Z,21.00
2018-06-30T15:09:42.256Z,21.00
2018-06-30T15:12:11.806Z,20.90
2018-06-30T15:14:40.471Z,20.70
2018-06-30T15:17:09.090Z,21.00
2018-06-30T15:19:37.762Z,21.20
2018-06-30T15:22:06.651Z,21.40
2018-06-30T15:24:35.288Z,21.50
2018-06-30T15:27:03.937Z,21.60
2018-06-30T15:29:32.562Z,21.80
2018-06-30T15:32:01.154Z,21.70
2018-06-30T15:34:29.858Z,21.60
2018-06-30T15:36:58.501Z,21.60
2018-06-30T15:39:27.142Z,21.50
2018-06-30T15:41:55.761Z,21.50
2018-06-30T15:46:52.686Z,21.50
2018-06-30T15:49:26.461Z,21.30
2018-06-30T15:51:55.086Z,21.30
2018-06-30T15:54:23.771Z,21.30
2018-06-30T15:56:52.458Z,21.40
2018-06-30T15:59:21.159Z,21.40
2018-06-30T16:01:49.831Z,21.20
2018-06-30T16:04:18.559Z,21.10
2018-06-30T16:06:47.232Z,21.10
2018-06-30T16:09:15.829Z,21.10
2018-06-30T16:11:44.559Z,21.00
2018-06-30T16:14:13.186Z,21.00
2018-06-30T16:16:41.790Z,21.00
2018-06-30T16:19:10.491Z,21.00
2018-06-30T16:21:39.132Z,21.10
2018-06-30T16:24:07.744Z,21.10
2018-06-30T16:26:36.930Z,21.20
2018-06-30T16:29:05.706Z,21.20
2018-06-30T16:31:34.335Z,21.30
2018-06-30T16:34:03.946Z,21.10
2018-06-30T16:36:32.576Z,21.10
2018-06-30T16:39:01.257Z,20.90
2018-06-30T16:41:30.259Z,20.90
2018-06-30T16:43:58.919Z,20.90
2018-06-30T16:46:27.594Z,20.70
2018-06-30T16:48:56.304Z,20.80
2018-06-30T16:51:25.080Z,20.70
2018-06-30T16:53:53.906Z,20.70
2018-06-30T16:56:22.837Z,20.60
2018-06-30T16:58:51.617Z,20.60
2018-06-30T17:01:22.021Z,20.70
2018-06-30T17:06:18.935Z,20.50
2018-06-30T17:08:47.556Z,20.30
2018-06-30T17:11:16.188Z,20.30
2018-06-30T17:13:44.817Z,20.30
2018-06-30T17:16:13.492Z,20.20
2018-06-30T17:18:42.090Z,20.20
2018-06-30T17:21:10.756Z,20.20
2018-06-30T17:23:39.515Z,20.10
2018-06-30T17:26:08.255Z,20.20
2018-06-30T17:28:36.775Z,20.00
2018-06-30T17:31:05.406Z,19.90
2018-06-30T17:33:34.019Z,20.00
2018-06-30T17:36:02.662Z,19.90
2018-06-30T17:38:31.453Z,19.80
2018-06-30T17:41:00.448Z,19.70
2018-06-30T17:43:29.098Z,19.70
2018-06-30T17:45:57.752Z,19.60
2018-06-30T17:48:26.452Z,19.60
2018-06-30T17:50:55.089Z,19.60
2018-06-30T17:53:23.714Z,19.60
2018-06-30T17:55:52.418Z,19.60
2018-06-30T17:58:21.008Z,19.60
2018-06-30T18:00:49.705Z,19.50
2018-06-30T18:03:18.365Z,19.50
2018-06-30T18:05:47.001Z,19.60
2018-06-30T18:08:15.678Z,19.60
2018-06-30T18:10:44.315Z,19.60
2018-06-30T18:13:12.972Z,19.70
2018-06-30T18:15:41.638Z,19.70
2018-06-30T18:18:10.271Z,19.70
2018-06-30T18:20:38.952Z,19.80
2018-06-30T18:23:07.598Z,19.80
2018-06-30T18:25:36.250Z,19.80
2018-06-30T18:28:04.905Z,19.80
2018-06-30T18:30:33.521Z,19.90
2018-06-30T18:33:02.094Z,19.90
2018-06-30T18:35:30.702Z,19.80
2018-06-30T18:37:59.345Z,19.80
2018-06-30T18:40:28.164Z,19.80
2018-06-30T18:42:56.802Z,19.70
2018-06-30T18:45:25.467Z,19.70
2018-06-30T18:47:54.114Z,19.60
2018-06-30T18:50:22.732Z,19.50
2018-06-30T18:52:51.875Z,19.50
2018-06-30T18:55:25.447Z,19.40
2018-06-30T18:57:54.147Z,19.30
2018-06-30T19:00:22.769Z,19.30
2018-06-30T19:02:51.740Z,19.20
2018-06-30T19:05:20.572Z,19.20
2018-06-30T19:07:49.157Z,19.20
2018-06-30T19:10:17.909Z,19.20
2018-06-30T19:12:48.553Z,19.20
2018-06-30T19:15:17.224Z,19.20
2018-06-30T19:17:45.978Z,19.20
2018-06-30T19:20:14.929Z,19.20
2018-06-30T19:22:43.539Z,19.20
2018-06-30T19:25:12.238Z,19.20
2018-06-30T19:27:41.564Z,19.20
2018-06-30T19:30:10.167Z,19.20
2018-06-30T19:32:38.762Z,19.10
2018-06-30T19:35:07.716Z,19.10
2018-06-30T19:37:36.317Z,19.10
2018-06-30T19:42:33.642Z,19.00
2018-06-30T19:45:02.265Z,19.00
2018-06-30T19:47:30.950Z,18.90
2018-06-30T19:49:59.758Z,18.90
2018-06-30T19:52:28.406Z,18.80
2018-06-30T19:54:57.766Z,18.70
2018-06-30T19:57:27.059Z,18.50
2018-06-30T19:59:56.100Z,18.40
2018-06-30T20:02:24.814Z,18.30
2018-06-30T20:04:53.464Z,18.20
2018-06-30T20:07:22.564Z,18.10
2018-06-30T20:09:51.362Z,18.10
2018-06-30T20:12:20.302Z,18.00
2018-06-30T20:14:48.941Z,18.00
2018-06-30T20:17:17.649Z,17.90
2018-06-30T20:19:46.351Z,17.90
2018-06-30T20:22:14.950Z,17.90
2018-06-30T20:24:43.561Z,17.60
2018-06-30T20:27:12.202Z,17.60
2018-06-30T20:29:40.830Z,17.50
2018-06-30T20:32:09.789Z,17.50
2018-06-30T20:34:38.407Z,17.40
2018-06-30T20:37:08.726Z,17.30
2018-06-30T20:39:37.393Z,17.20
2018-06-30T20:42:06.657Z,17.20
2018-06-30T20:44:36.444Z,17.00
2018-06-30T20:47:05.094Z,16.90
2018-06-30T20:49:33.737Z,16.80
2018-06-30T20:52:03.503Z,16.70
2018-06-30T20:54:33.375Z,16.60
2018-06-30T20:57:03.867Z,16.50
2018-06-30T20:59:32.526Z,16.40
2018-06-30T21:02:02.964Z,16.40
2018-06-30T21:04:32.196Z,16.30
2018-06-30T21:07:01.810Z,16.20
2018-06-30T21:09:30.421Z,16.20
2018-06-30T21:12:01.024Z,16.10
2018-06-30T21:14:29.656Z,16.00
2018-06-30T21:16:58.287Z,16.00
2018-06-30T21:19:27.054Z,15.90
2018-06-30T21:21:55.864Z,15.80
2018-06-30T21:24:24.804Z,15.60
2018-06-30T21:26:53.542Z,15.60
2018-06-30T21:29:22.588Z,15.50
2018-06-30T21:31:51.276Z,15.40
2018-06-30T21:34:20.498Z,15.30
2018-06-30T21:36:49.208Z,15.10
2018-06-30T21:39:19.638Z,15.00
2018-06-30T21:41:49.703Z,14.90
2018-06-30T21:44:18.362Z,14.90
2018-06-30T21:46:47.070Z,14.70
2018-06-30T21:49:15.724Z,14.60
2018-06-30T21:51:44.457Z,14.50
2018-06-30T21:54:13.137Z,14.50
2018-06-30T21:56:41.837Z,14.40
2018-06-30T21:59:11.091Z,14.20
2018-06-30T22:01:41.817Z,14.20
2018-06-30T22:04:10.526Z,14.10
2018-06-30T22:06:39.155Z,14.00
2018-06-30T22:09:09.329Z,13.90
2018-06-30T22:11:38.041Z,13.90
2018-06-30T22:14:06.792Z,13.80
2018-06-30T22:16:35.591Z,13.80
2018-06-30T22:19:04.282Z,13.70
2018-06-30T22:21:32.956Z,13.70
2018-06-30T22:24:01.972Z,13.60
2018-06-30T22:26:30.700Z,13.60
2018-06-30T22:29:00.715Z,13.50
2018-06-30T22:31:29.398Z,13.40
2018-06-30T22:33:58.067Z,13.40
2018-06-30T22:36:26.732Z,13.40
2018-06-30T22:38:56.432Z,13.30
2018-06-30T22:41:25.104Z,13.30
2018-06-30T22:43:55.868Z,13.20
2018-06-30T22:46:25.140Z,13.10
2018-06-30T22:48:53.831Z,13.10
2018-06-30T22:51:22.572Z,13.10
2018-06-30T22:53:51.250Z,13.10
2018-06-30T22:56:19.904Z,13.10
2018-06-30T22:58:48.617Z,13.20
2018-06-30T23:01:19.025Z,13.10
2018-06-30T23:03:48.437Z,13.10
2018-06-30T23:06:19.354Z,13.10
2018-06-30T23:08:54.847Z,13.00
2018-06-30T23:11:24.402Z,13.00
2018-06-30T23:13:53.258Z,13.00
2018-06-30T23:16:21.942Z,13.00
2018-06-30T23:18:52.766Z,13.00
2018-06-30T23:21:22.647Z,13.00
2018-06-30T23:23:51.263Z,13.00
2018-06-30T23:26:19.931Z,13.00
2018-06-30T23:28:48.563Z,13.00
2018-06-30T23:31:17.191Z,12.90
2018-06-30T23:33:47.964Z,12.90
2018-06-30T23:36:16.583Z,12.80
2018-06-30T23:38:47.323Z,12.70
2018-06-30T23:41:15.958Z,12.70
2018-06-30T23:43:44.575Z,12.60
2018-06-30T23:46:13.226Z,12.60
2018-06-30T23:48:44.582Z,12.60
2018-06-30T23:51:13.262Z,12.70
2018-06-30T23:53:41.913Z,12.60
2018-06-30T23:56:11.899Z,12.50
2018-06-30T23:58:40.546Z,12.50
